Time;durP1;ratioP1;P1;durP2;ratioP2;P2;SDS_P1;SDS_P2;PMS_P1;PMS_P2;Temp;Humidity;BMP_temperature;BMP_pressure;BME280_temperature;BME280_humidity;BME280_pressure;Samples;Min_cycle;Max_cycle;Signal;HPM_P1;HPM_P2
2021/01/08 00:01:10;;;;;;;1.30;1.12;;;;;;;10.53;53.87;98795.69;1793028;79;21370;-68
2021/01/08 00:03:40;;;;;;;1.20;1.05;;;;;;;10.52;53.88;98787.39;1767423;78;21170;-68
2021/01/08 00:06:08;;;;;;;1.57;1.10;;;;;;;10.53;53.86;98797.02;1768992;79;21121;-69
2021/01/08 00:08:35;;;;;;;1.10;1.00;;;;;;;10.52;53.86;98795.88;1801210;79;21126;-69
2021/01/08 00:11:03;;;;;;;1.12;0.90;;;;;;;10.53;53.85;98809.48;1760144;79;21233;-68
2021/01/08 00:13:30;;;;;;;1.52;1.20;;;;;;;10.52;53.84;98804.65;1795793;79;21420;-68
2021/01/08 00:15:59;;;;;;;1.30;1.07;;;;;;;10.52;53.83;98805.16;1791264;77;21167;-68
2021/01/08 00:18:26;;;;;;;1.10;1.00;;;;;;;10.52;53.84;98810.48;1758493;79;21159;-68
2021/01/08 00:20:54;;;;;;;1.32;1.07;;;;;;;10.52;53.84;98813.94;1769028;79;21098;-68
2021/01/08 00:23:21;;;;;;;2.47;1.22;;;;;;;10.51;53.83;98814.16;1768396;77;21099;-70
2021/01/08 00:25:51;;;;;;;1.98;1.42;;;;;;;10.51;53.83;98832.75;1794710;79;21411;-69
2021/01/08 00:28:19;;;;;;;1.07;0.93;;;;;;;10.51;53.83;98834.89;1769112;77;21189;-69
2021/01/08 00:30:46;;;;;;;1.45;1.02;;;;;;;10.50;53.84;98838.54;1796874;77;21147;-70
2021/01/08 00:33:14;;;;;;;1.02;0.93;;;;;;;10.51;53.80;98838.06;1796726;79;21146;-69
2021/01/08 00:35:41;;;;;;;1.02;0.90;;;;;;;10.51;53.83;98844.70;1771852;79;21134;-69
2021/01/08 00:38:08;;;;;;;0.90;0.90;;;;;;;10.51;53.80;98836.73;1780122;79;21297;-68
2021/01/08 00:40:36;;;;;;;1.32;1.22;;;;;;;10.50;53.78;98840.38;1765579;79;21146;-67
2021/01/08 00:43:04;;;;;;;1.07;0.98;;;;;;;10.51;53.78;98838.88;1760489;79;21139;-69
2021/01/08 00:45:32;;;;;;;1.20;1.00;;;;;;;10.50;53.79;98827.11;1773728;78;21138;-69
2021/01/08 00:48:00;;;;;;;1.50;0.90;;;;;;;10.50;53.78;98839.88;1783599;79;21594;-69
2021/01/08 00:50:27;;;;;;;0.90;0.90;;;;;;;10.50;53.77;98841.20;1791006;77;21369;-70
2021/01/08 00:52:55;;;;;;;0.90;0.90;;;;;;;10.50;53.78;98841.71;1776815;78;21193;-69
2021/01/08 00:55:22;;;;;;;1.12;1.02;;;;;;;10.49;53.74;98838.73;1800552;78;21571;-69
2021/01/08 00:57:59;;;;;;;1.42;1.10;;;;;;;10.53;53.76;98836.84;1806424;77;28248;-70
2021/01/08 01:00:28;;;;;;;0.82;0.82;;;;;;;10.50;53.74;98840.38;1781823;79;21252;-69
2021/01/08 01:02:56;;;;;;;0.95;0.90;;;;;;;10.50;53.75;98837.73;1814182;78;21368;-70
2021/01/08 01:05:23;;;;;;;0.95;0.88;;;;;;;10.49;53.74;98842.70;1824722;78;21171;-70
2021/01/08 01:07:50;;;;;;;1.27;1.17;;;;;;;10.48;53.74;98851.19;1792366;79;21057;-70
2021/01/08 01:10:18;;;;;;;0.93;0.85;;;;;;;10.48;53.74;98851.19;1804215;78;21137;-69
2021/01/08 01:12:45;;;;;;;0.90;0.82;;;;;;;10.47;53.73;98847.39;1811469;78;21126;-70
2021/01/08 01:15:17;;;;;;;0.80;0.80;;;;;;;10.48;53.74;98853.03;1785877;78;21366;-70
2021/01/08 01:17:43;;;;;;;1.20;0.82;;;;;;;10.47;53.74;98861.51;1789919;78;21616;-70
2021/01/08 01:20:13;;;;;;;1.55;0.93;;;;;;;10.47;53.74;98858.86;1813190;78;21161;-71
2021/01/08 01:22:40;;;;;;;0.75;0.75;;;;;;;10.47;53.73;98859.34;1797482;78;21140;-70
2021/01/08 01:25:09;;;;;;;0.72;0.72;;;;;;;10.46;53.72;98858.52;1785062;79;21152;-72
2021/01/08 01:27:38;;;;;;;0.93;0.85;;;;;;;10.47;53.70;98856.69;1792189;78;21621;-71
2021/01/08 01:30:08;;;;;;;1.00;0.80;;;;;;;10.47;53.70;98855.36;1813819;78;21152;-70
2021/01/08 01:32:36;;;;;;;1.07;0.93;;;;;;;10.46;53.72;98862.51;1803115;78;21168;-69
2021/01/08 01:35:05;;;;;;;1.02;0.93;;;;;;;10.46;53.73;98861.69;1811031;78;21185;-70
2021/01/08 01:37:32;;;;;;;1.02;0.90;;;;;;;10.46;53.68;98869.14;1810420;79;21244;-69
2021/01/08 01:40:00;;;;;;;0.90;0.90;;;;;;;10.45;53.69;98871.50;1812940;78;21427;-69
2021/01/08 01:42:27;;;;;;;0.98;0.78;;;;;;;10.46;53.68;98872.31;1786783;78;21176;-69
2021/01/08 01:44:55;;;;;;;0.70;0.70;;;;;;;10.46;53.68;98877.62;1817825;78;21145;-69
2021/01/08 01:47:22;;;;;;;0.98;0.88;;;;;;;10.46;53.67;98878.44;1801093;78;21066;-68
2021/01/08 01:49:50;;;;;;;1.10;1.00;;;;;;;10.45;53.65;98874.64;1794585;79;21132;-69
2021/01/08 01:52:18;;;;;;;0.80;0.68;;;;;;;10.46;53.64;98888.25;1807618;78;21600;-68
2021/01/08 01:54:45;;;;;;;1.00;0.90;;;;;;;10.45;53.63;98878.63;1803121;78;21153;-68
2021/01/08 01:57:13;;;;;;;0.88;0.80;;;;;;;10.45;53.62;98889.24;1801459;78;21133;-69
2021/01/08 01:59:41;;;;;;;0.95;0.90;;;;;;;10.45;53.61;98889.24;1800179;78;21137;-71
2021/01/08 02:02:14;;;;;;;0.90;0.90;;;;;;;10.45;53.61;98887.91;1786427;79;21130;-69
2021/01/08 02:04:42;;;;;;;0.80;0.80;;;;;;;10.45;53.61;98884.78;1797393;78;21444;-69
2021/01/08 02:07:10;;;;;;;1.22;0.90;;;;;;;10.45;53.61;98895.88;1816479;78;21614;-69
2021/01/08 02:09:39;;;;;;;0.80;0.80;;;;;;;10.45;53.60;98897.20;1784851;79;21173;-69
2021/01/08 02:12:07;;;;;;;1.00;0.90;;;;;;;10.44;53.58;98895.06;1815566;79;21783;-70
2021/01/08 02:14:34;;;;;;;0.90;0.80;;;;;;;10.43;53.58;98902.22;1790258;79;21184;-69
2021/01/08 02:17:02;;;;;;;1.12;1.02;;;;;;;10.43;53.57;98900.08;1784695;79;21779;-69
2021/01/08 02:19:50;;;;;;;1.02;0.90;;;;;;;10.42;53.59;98901.88;1790593;79;21184;-69
2021/01/08 02:22:27;;;;;;;1.22;1.07;;;;;;;10.43;53.57;98906.72;1799219;79;21156;-69
2021/01/08 02:25:20;;;;;;;0.70;0.70;;;;;;;10.41;53.56;98908.22;1809680;79;21132;-68
2021/01/08 02:28:20;;;;;;;0.70;0.70;;;;;;;10.39;53.57;98906.27;1795732;79;21142;-70
2021/01/08 02:30:47;;;;;;;0.80;0.80;;;;;;;10.38;53.62;98907.77;1786415;79;21224;-69
2021/01/08 02:33:14;;;;;;;0.80;0.80;;;;;;;10.34;53.64;98902.00;1797278;79;22072;-70
2021/01/08 02:35:42;;;;;;;1.00;0.90;;;;;;;10.36;53.67;98913.27;1787625;79;21235;-70
2021/01/08 02:38:11;;;;;;;0.88;0.82;;;;;;;10.36;53.64;98917.24;1813469;79;21161;-69
2021/01/08 02:40:39;;;;;;;1.27;0.90;;;;;;;10.37;53.65;98919.39;1788225;79;21121;-69
2021/01/08 02:43:06;;;;;;;0.82;0.70;;;;;;;10.37;53.64;98921.56;1811044;78;21368;-69
2021/01/08 02:45:35;;;;;;;1.12;0.80;;;;;;;10.37;53.64;98924.21;1799147;77;21208;-69
2021/01/08 02:48:03;;;;;;;0.75;0.75;;;;;;;10.37;53.62;98930.85;1800490;79;21137;-69
2021/01/08 02:50:31;;;;;;;1.00;0.90;;;;;;;10.37;53.59;98940.63;1786629;79;21156;-69
2021/01/08 02:53:02;;;;;;;0.82;0.82;;;;;;;10.38;53.61;98936.98;1800195;79;21171;-69
2021/01/08 02:55:30;;;;;;;1.17;0.90;;;;;;;10.37;53.60;98928.20;1817131;79;21406;-70
2021/01/08 02:58:00;;;;;;;0.90;0.80;;;;;;;10.37;53.58;98930.85;1801482;78;21121;-70
2021/01/08 03:00:31;;;;;;;0.90;0.90;;;;;;;10.37;53.58;98936.16;1816538;78;21618;-69
2021/01/08 03:03:00;;;;;;;0.80;0.80;;;;;;;10.38;53.58;98930.34;1796045;79;21170;-70
2021/01/08 03:05:30;;;;;;;0.70;0.70;;;;;;;10.37;53.56;98932.66;1816509;78;21127;-69
2021/01/08 03:07:58;;;;;;;0.78;0.78;;;;;;;10.37;53.55;98934.83;1814145;78;21414;-70
2021/01/08 03:10:25;;;;;;;1.32;1.10;;;;;;;10.38;53.53;98951.06;1796062;79;21171;-69
2021/01/08 03:13:04;;;;;;;1.22;0.90;;;;;;;10.39;53.51;98939.93;1825197;78;21158;-69
2021/01/08 03:15:32;;;;;;;1.00;0.85;;;;;;;10.38;53.51;98936.98;1788060;79;21153;-67
2021/01/08 03:18:00;;;;;;;0.80;0.80;;;;;;;10.37;53.50;98949.44;1812048;78;21591;-68
2021/01/08 03:20:27;;;;;;;0.88;0.78;;;;;;;10.38;53.51;98949.73;1825833;78;21364;-68
2021/01/08 03:22:54;;;;;;;0.93;0.82;;;;;;;10.38;53.49;98948.92;1796828;78;21207;-68
2021/01/08 03:25:22;;;;;;;1.45;0.95;;;;;;;10.38;53.50;98956.89;1795956;79;21149;-68
2021/01/08 03:27:49;;;;;;;0.82;0.82;;;;;;;10.38;53.49;98964.34;1820906;77;21158;-68
2021/01/08 03:30:19;;;;;;;1.22;1.12;;;;;;;10.38;53.47;98959.03;1827762;78;21151;-68
2021/01/08 03:32:46;;;;;;;0.80;0.80;;;;;;;10.39;53.48;98964.67;1804548;78;22098;-68
2021/01/08 03:35:14;;;;;;;1.00;0.90;;;;;;;10.38;53.47;98957.70;1826134;78;21123;-69
2021/01/08 03:37:42;;;;;;;0.88;0.88;;;;;;;10.39;53.44;98974.45;1819101;78;21167;-70
2021/01/08 03:40:09;;;;;;;0.85;0.80;;;;;;;10.38;53.43;98972.30;1820812;78;21311;-70
2021/01/08 03:42:37;;;;;;;0.72;0.72;;;;;;;10.38;53.42;98978.95;1811611;78;21128;-69
2021/01/08 03:45:07;;;;;;;0.70;0.70;;;;;;;10.39;53.44;98971.80;1805653;78;21323;-69
2021/01/08 03:47:34;;;;;;;0.82;0.72;;;;;;;10.38;53.42;98972.30;1825749;78;21144;-69
2021/01/08 03:50:01;;;;;;;0.72;0.72;;;;;;;10.39;53.39;98972.64;1820351;78;21143;-69
2021/01/08 03:52:29;;;;;;;1.10;1.00;;;;;;;10.39;53.38;98987.24;1796101;79;21121;-69
2021/01/08 03:54:56;;;;;;;0.80;0.80;;;;;;;10.39;53.37;98983.27;1797481;79;21603;-68
2021/01/08 03:57:23;;;;;;;2.05;0.93;;;;;;;10.39;53.36;98997.86;1817872;77;21631;-68
2021/01/08 03:59:50;;;;;;;0.95;0.95;;;;;;;10.39;53.36;98995.20;1808398;78;21151;-68
2021/01/08 04:02:18;;;;;;;1.07;0.98;;;;;;;10.40;53.34;98989.39;1808751;78;21179;-69
2021/01/08 04:04:46;;;;;;;1.20;1.10;;;;;;;10.39;53.35;98988.57;1804529;78;21163;-69
2021/01/08 04:07:13;;;;;;;1.00;0.90;;;;;;;10.39;53.35;98993.03;1788189;79;21173;-68
2021/01/08 04:09:40;;;;;;;1.05;0.90;;;;;;;10.39;53.34;98997.86;1784473;79;21332;-70
2021/01/08 04:12:09;;;;;;;0.80;0.80;;;;;;;10.39;53.34;98999.19;1804831;79;21100;-68
2021/01/08 04:14:36;;;;;;;1.10;0.90;;;;;;;10.39;53.31;99001.84;1794613;79;21186;-68
2021/01/08 04:17:03;;;;;;;1.05;0.93;;;;;;;10.39;53.30;99005.83;1796995;79;21198;-68
2021/01/08 04:19:31;;;;;;;1.45;0.90;;;;;;;10.39;53.29;99001.84;1784318;79;21113;-68
2021/01/08 04:21:58;;;;;;;0.98;0.90;;;;;;;10.40;53.30;99023.91;1798271;79;21382;-69
2021/01/08 04:24:25;;;;;;;1.02;0.90;;;;;;;10.39;53.29;99016.45;1792489;79;21164;-68
2021/01/08 04:26:53;;;;;;;1.05;0.95;;;;;;;10.39;53.29;99019.11;1793823;79;21588;-68
2021/01/08 04:29:20;;;;;;;1.32;1.22;;;;;;;10.40;53.28;99023.91;1795706;79;21124;-68
2021/01/08 04:31:48;;;;;;;1.15;1.00;;;;;;;10.40;53.27;99027.38;1793429;79;21164;-69
2021/01/08 04:34:16;;;;;;;1.50;1.02;;;;;;;10.40;53.27;99036.67;1801414;79;21199;-68
2021/01/08 04:36:44;;;;;;;1.10;0.98;;;;;;;10.41;53.27;99037.48;1797577;79;21144;-69
2021/01/08 04:39:11;;;;;;;0.98;0.82;;;;;;;10.40;53.26;99038.00;1800871;79;21153;-68
2021/01/08 04:41:38;;;;;;;1.30;1.20;;;;;;;10.40;53.25;99034.02;1806791;78;21148;-68
2021/01/08 04:44:06;;;;;;;1.55;1.27;;;;;;;10.40;53.22;99029.22;1801405;79;21172;-68
2021/01/08 04:46:35;;;;;;;1.12;1.02;;;;;;;10.40;53.23;99045.96;1795624;79;21359;-69
2021/01/08 04:49:06;;;;;;;1.22;1.12;;;;;;;10.41;53.22;99044.12;1797392;79;21194;-68
2021/01/08 04:51:37;;;;;;;1.27;1.17;;;;;;;10.40;53.22;99042.48;1788117;79;21197;-69
2021/01/08 04:54:05;;;;;;;1.30;1.20;;;;;;;10.40;53.23;99051.27;1799691;79;21130;-69
2021/01/08 04:56:46;;;;;;;1.22;1.10;;;;;;;10.41;53.22;99053.41;1809099;79;21145;-67
2021/01/08 04:59:13;;;;;;;0.95;0.95;;;;;;;10.40;53.21;99055.25;1795237;78;21190;-68
2021/01/08 05:01:40;;;;;;;1.40;1.10;;;;;;;10.39;53.22;99050.97;1809576;79;21138;-68
2021/01/08 05:04:09;;;;;;;1.20;1.10;;;;;;;10.40;53.22;99061.08;1787108;79;21165;-67
2021/01/08 05:06:36;;;;;;;1.30;1.17;;;;;;;10.40;53.22;99067.72;1794927;79;21227;-68
2021/01/08 05:09:05;;;;;;;1.02;0.95;;;;;;;10.39;53.24;99075.34;1788321;79;21112;-68
2021/01/08 05:11:32;;;;;;;1.07;0.90;;;;;;;10.39;53.24;99068.23;1794643;79;21372;-69
2021/01/08 05:14:07;;;;;;;1.37;1.15;;;;;;;10.39;53.23;99076.19;1789055;79;21168;-68
2021/01/08 05:16:34;;;;;;;1.27;1.17;;;;;;;10.39;53.22;99064.24;1801012;79;21146;-68
2021/01/08 05:19:04;;;;;;;1.10;1.00;;;;;;;10.38;53.21;99071.87;1794439;79;21166;-68
2021/01/08 05:21:32;;;;;;;1.47;1.20;;;;;;;10.40;53.23;99072.52;1798407;78;21189;-70
2021/01/08 05:24:01;;;;;;;1.47;1.35;;;;;;;10.40;53.23;99071.70;1792984;80;21429;-70
2021/01/08 05:26:28;;;;;;;1.52;1.42;;;;;;;10.39;53.22;99077.52;1796787;79;21157;-71
2021/01/08 05:29:01;;;;;;;1.20;1.10;;;;;;;10.39;53.22;99069.55;1808958;79;21149;-69
2021/01/08 05:31:30;;;;;;;1.60;1.47;;;;;;;10.39;53.21;99068.23;1788220;79;21623;-69
2021/01/08 05:33:58;;;;;;;1.67;1.45;;;;;;;10.39;53.22;99072.20;1792524;78;21195;-69
2021/01/08 05:36:25;;;;;;;1.17;1.05;;;;;;;10.39;53.23;99065.57;1793246;79;21160;-69
2021/01/08 05:38:57;;;;;;;1.47;1.25;;;;;;;10.40;53.21;99069.05;1802300;79;21150;-68
2021/01/08 05:41:29;;;;;;;1.55;1.32;;;;;;;10.39;53.22;99078.00;1807310;78;21207;-71
2021/01/08 05:43:58;;;;;;;1.82;1.30;;;;;;;10.38;53.23;99075.86;1802311;79;21185;-70
2021/01/08 05:46:30;;;;;;;1.47;1.32;;;;;;;10.38;53.23;99079.84;1787696;79;21197;-68
2021/01/08 05:49:00;;;;;;;1.45;1.30;;;;;;;10.40;53.20;99084.97;1794599;79;21417;-69
2021/01/08 05:51:30;;;;;;;1.75;1.40;;;;;;;10.39;53.20;99090.80;1799492;79;22058;-68
2021/01/08 05:54:01;;;;;;;1.32;1.22;;;;;;;10.40;53.20;99099.06;1802434;79;21157;-69
2021/01/08 05:56:36;;;;;;;1.95;1.30;;;;;;;10.40;53.19;99107.55;1790340;79;21199;-70
2021/01/08 05:59:05;;;;;;;1.47;1.35;;;;;;;10.41;53.18;99122.45;1773537;79;21581;-69
2021/01/08 06:01:34;;;;;;;2.00;1.77;;;;;;;10.39;53.20;99125.31;1792969;79;21195;-68
2021/01/08 06:04:01;;;;;;;1.95;1.65;;;;;;;10.40;53.21;99124.29;1796143;79;21158;-68
2021/01/08 06:06:43;;;;;;;2.00;1.80;;;;;;;10.39;53.20;99126.64;1787276;79;21117;-69
2021/01/08 06:09:15;;;;;;;2.17;1.70;;;;;;;10.40;53.18;99133.58;1787236;79;21218;-68
2021/01/08 06:11:45;;;;;;;1.92;1.65;;;;;;;10.40;53.18;99126.95;1798814;79;21151;-69
2021/01/08 06:14:14;;;;;;;3.08;1.90;;;;;;;10.40;53.19;99127.45;1785364;79;21196;-68
2021/01/08 06:16:48;;;;;;;2.22;1.80;;;;;;;10.39;53.21;99137.74;1762972;79;22203;-69
2021/01/08 06:19:16;;;;;;;2.00;1.80;;;;;;;10.40;53.20;99141.55;1808291;79;21194;-69
2021/01/08 06:21:46;;;;;;;2.22;1.98;;;;;;;10.40;53.19;99153.50;1800153;79;21206;-69
2021/01/08 06:24:26;;;;;;;2.37;1.85;;;;;;;10.40;53.16;99157.48;1787965;79;21189;-69
2021/01/08 06:26:55;;;;;;;2.92;2.20;;;;;;;10.40;53.18;99160.14;1789244;79;21383;-68
2021/01/08 06:29:29;;;;;;;2.77;2.00;;;;;;;10.40;53.15;99172.09;1794776;79;21188;-69
2021/01/08 06:32:13;;;;;;;3.15;2.40;;;;;;;10.40;53.14;99165.45;1790674;79;21081;-68
2021/01/08 06:34:46;;;;;;;3.10;2.37;;;;;;;10.40;53.16;99169.43;1785095;79;21126;-69
2021/01/08 06:37:17;;;;;;;2.60;2.35;;;;;;;10.40;53.18;99176.06;1784431;79;21667;-68
2021/01/08 06:39:45;;;;;;;2.95;2.25;;;;;;;10.39;53.17;99178.42;1794512;78;21318;-68
2021/01/08 06:42:27;;;;;;;3.27;2.72;;;;;;;10.39;53.16;99179.75;1784338;79;21184;-69
2021/01/08 06:44:55;;;;;;;2.70;2.27;;;;;;;10.40;53.15;99185.36;1790852;77;21179;-69
2021/01/08 06:47:23;;;;;;;3.90;2.80;;;;;;;10.40;53.18;99178.73;1804878;79;21825;-69
2021/01/08 06:49:52;;;;;;;2.90;2.33;;;;;;;10.40;53.14;99193.33;1795126;79;21125;-68
2021/01/08 06:52:21;;;;;;;3.30;2.42;;;;;;;10.41;53.15;99196.80;1802787;79;21363;-68
2021/01/08 06:54:54;;;;;;;3.92;3.02;;;;;;;10.41;53.13;99208.27;1798926;79;21184;-69
2021/01/08 06:57:21;;;;;;;3.12;2.65;;;;;;;10.42;53.12;99207.77;1784620;79;21146;-69
2021/01/08 06:59:55;;;;;;;2.87;2.55;;;;;;;10.43;53.11;99212.08;1767701;79;21132;-70
2021/01/08 07:02:24;;;;;;;4.50;3.47;;;;;;;10.43;53.10;99210.75;1784729;79;21094;-69
2021/01/08 07:04:52;;;;;;;3.92;3.20;;;;;;;10.43;53.09;99216.06;1790728;79;22143;-71
2021/01/08 07:07:23;;;;;;;3.85;3.00;;;;;;;10.43;53.09;99223.52;1780041;79;22021;-69
2021/01/08 07:09:51;;;;;;;3.60;3.05;;;;;;;10.44;53.08;99217.70;1794813;79;21153;-67
2021/01/08 07:12:26;;;;;;;4.75;3.72;;;;;;;10.44;53.04;99220.35;1791386;80;21137;-68
2021/01/08 07:14:54;;;;;;;4.60;3.42;;;;;;;10.45;53.04;99225.16;1786286;80;21145;-68
2021/01/08 07:17:32;;;;;;;4.22;3.10;;;;;;;10.46;53.04;99224.98;1805837;79;21245;-67
2021/01/08 07:20:01;;;;;;;4.80;3.58;;;;;;;10.46;53.03;99232.13;1807350;79;21162;-68
2021/01/08 07:22:38;;;;;;;5.35;3.92;;;;;;;10.46;53.01;99229.47;1808743;79;21406;-68
2021/01/08 07:25:13;;;;;;;4.25;3.35;;;;;;;10.47;53.01;99231.11;1778145;79;21134;-70
2021/01/08 07:27:41;;;;;;;4.53;3.70;;;;;;;10.47;52.99;99238.59;1806870;78;21086;-69
2021/01/08 07:30:10;;;;;;;4.53;3.87;;;;;;;10.47;53.09;99233.28;1802065;79;21307;-69
2021/01/08 07:32:52;;;;;;;5.10;3.92;;;;;;;10.47;54.46;99237.27;1792849;80;21589;-69
2021/01/08 07:35:29;;;;;;;5.03;4.20;;;;;;;10.49;55.56;99245.87;1805103;77;21149;-69
2021/01/08 07:38:08;;;;;;;6.53;4.10;;;;;;;10.49;55.73;99239.23;1790669;79;21182;-69
2021/01/08 07:40:41;;;;;;;4.85;3.62;;;;;;;10.48;55.74;99239.41;1784512;79;21149;-68
2021/01/08 07:43:11;;;;;;;5.35;4.00;;;;;;;10.47;55.69;99249.70;1796391;78;21139;-69
2021/01/08 07:45:55;;;;;;;6.25;4.50;;;;;;;10.47;55.61;99260.32;1789277;79;21157;-70
2021/01/08 07:48:30;;;;;;;5.28;4.08;;;;;;;10.47;55.53;99259.84;1798972;77;21209;-69
2021/01/08 07:51:10;;;;;;;5.37;4.55;;;;;;;10.47;55.43;99266.95;1801725;79;21157;-69
2021/01/08 07:53:45;;;;;;;6.40;4.55;;;;;;;10.46;55.37;99267.47;1793484;79;21131;-68
2021/01/08 07:56:25;;;;;;;5.67;4.40;;;;;;;10.47;55.28;99268.28;1799580;79;21185;-69
2021/01/08 07:59:02;;;;;;;6.25;4.50;;;;;;;10.46;55.20;99272.78;1781119;79;21198;-68
2021/01/08 08:01:31;;;;;;;5.70;4.60;;;;;;;10.46;55.09;99274.11;1775510;79;21166;-69
2021/01/08 08:04:05;;;;;;;5.37;4.20;;;;;;;10.47;55.02;99272.27;1788798;79;21142;-69
2021/01/08 08:06:35;;;;;;;6.08;4.25;;;;;;;10.47;54.94;99270.47;1791512;79;21169;-68
2021/01/08 08:09:05;;;;;;;5.55;4.67;;;;;;;10.48;54.86;99272.61;1797102;79;21330;-69
2021/01/08 08:11:35;;;;;;;5.70;4.55;;;;;;;10.48;54.78;99273.42;1797160;79;21325;-69
2021/01/08 08:14:04;;;;;;;5.47;4.45;;;;;;;10.49;54.74;99279.08;1796910;79;21138;-69
2021/01/08 08:16:36;;;;;;;5.47;4.30;;;;;;;10.51;54.65;99284.22;1798158;78;21224;-67
2021/01/08 08:19:09;;;;;;;6.95;4.72;;;;;;;10.52;54.57;99275.22;1793945;79;21210;-67
2021/01/08 08:21:38;;;;;;;5.87;4.73;;;;;;;10.53;54.51;99280.88;1770455;79;21366;-66
2021/01/08 08:24:06;;;;;;;5.78;4.40;;;;;;;10.53;54.44;99276.89;1791916;79;21150;-67
2021/01/08 08:26:34;;;;;;;6.15;4.80;;;;;;;10.53;54.41;99275.05;1786147;79;21181;-68
2021/01/08 08:29:14;;;;;;;7.70;5.25;;;;;;;10.53;54.35;99283.02;1774334;79;21150;-66
2021/01/08 08:31:45;;;;;;;6.45;4.83;;;;;;;10.54;54.30;99274.55;1784126;79;21157;-68
2021/01/08 08:34:14;;;;;;;6.62;4.92;;;;;;;10.55;54.74;99274.88;1773584;79;22197;-68
2021/01/08 08:36:42;;;;;;;5.47;4.35;;;;;;;10.57;54.79;99286.15;1768104;79;21152;-69
2021/01/08 08:39:14;;;;;;;5.87;4.50;;;;;;;10.57;54.76;99283.49;1770720;78;21166;-67
2021/01/08 08:41:44;;;;;;;6.08;4.45;;;;;;;10.60;54.69;99289.75;1778339;79;21153;-67
2021/01/08 08:44:15;;;;;;;6.72;4.40;;;;;;;10.60;54.60;99297.73;1784255;79;21216;-66
2021/01/08 08:46:55;;;;;;;6.62;4.97;;;;;;;10.61;54.53;99296.73;1778917;79;21374;-68
2021/01/08 08:49:30;;;;;;;6.95;5.00;;;;;;;10.62;54.49;99296.56;1798002;79;21185;-67
2021/01/08 08:51:58;;;;;;;5.75;4.53;;;;;;;10.62;54.41;99303.20;1784055;79;21648;-68
2021/01/08 08:54:26;;;;;;;6.97;5.20;;;;;;;10.62;54.34;99301.03;1779873;78;21157;-68
2021/01/08 08:56:56;;;;;;;5.92;4.12;;;;;;;10.63;54.30;99301.36;1779694;79;21174;-70
2021/01/08 08:59:38;;;;;;;7.85;4.78;;;;;;;10.64;54.25;99301.67;1802351;79;22537;-68
2021/01/08 09:02:08;;;;;;;6.90;4.87;;;;;;;10.63;54.20;99306.17;1800279;77;21164;-68
2021/01/08 09:04:37;;;;;;;6.95;4.80;;;;;;;10.64;54.10;99299.02;1808749;79;21154;-69
2021/01/08 09:07:11;;;;;;;5.90;5.00;;;;;;;10.62;54.08;99303.20;1787774;79;21177;-67
2021/01/08 09:09:39;;;;;;;5.83;4.58;;;;;;;10.64;54.05;99310.97;1797523;79;21180;-68
2021/01/08 09:12:30;;;;;;;6.45;4.58;;;;;;;10.65;53.99;99309.98;1797115;79;21213;-70
2021/01/08 09:15:03;;;;;;;6.50;4.92;;;;;;;10.65;53.98;99310.48;1795223;79;21629;-70
2021/01/08 09:17:36;;;;;;;6.45;4.40;;;;;;;10.65;53.90;99308.65;1797640;79;21170;-68
2021/01/08 09:20:06;;;;;;;6.92;5.37;;;;;;;10.65;53.90;99308.65;1788977;79;21159;-68
2021/01/08 09:22:35;;;;;;;6.70;5.20;;;;;;;10.65;53.86;99313.14;1750176;81;21213;-69
2021/01/08 09:25:04;;;;;;;7.03;4.90;;;;;;;10.65;53.85;99317.95;1739134;81;21446;-70
2021/01/08 09:27:31;;;;;;;6.60;5.12;;;;;;;10.66;53.81;99313.45;1757347;80;21183;-71
2021/01/08 09:30:11;;;;;;;6.50;4.95;;;;;;;10.66;53.79;99308.95;1765284;81;21134;-70
2021/01/08 09:32:38;;;;;;;7.22;4.85;;;;;;;10.69;53.74;99315.77;1753677;81;21126;-68
2021/01/08 09:35:10;;;;;;;6.12;4.70;;;;;;;10.68;53.70;99309.63;1763373;79;21144;-69
2021/01/08 09:37:53;;;;;;;5.40;4.28;;;;;;;10.69;53.66;99317.09;1751095;80;21400;-69
2021/01/08 09:40:21;;;;;;;6.00;4.40;;;;;;;10.69;53.62;99316.58;1757240;81;21134;-70
2021/01/08 09:42:52;;;;;;;6.78;4.80;;;;;;;10.70;53.58;99318.73;1745180;81;21190;-68
2021/01/08 09:45:23;;;;;;;6.67;5.45;;;;;;;10.69;53.57;99320.56;1745100;81;21202;-69
2021/01/08 09:47:51;;;;;;;7.22;4.92;;;;;;;10.70;53.54;99327.55;1752251;81;21123;-70
2021/01/08 09:50:28;;;;;;;6.10;4.95;;;;;;;10.70;53.51;99320.05;1739677;79;21371;-68
2021/01/08 09:53:00;;;;;;;6.33;4.97;;;;;;;10.70;53.49;99322.23;1778898;80;21185;-68
2021/01/08 09:55:31;;;;;;;7.55;5.30;;;;;;;10.71;53.48;99324.38;1748543;81;21198;-70
2021/01/08 09:58:01;;;;;;;6.92;5.33;;;;;;;10.71;53.42;99323.87;1744362;81;21575;-69
2021/01/08 10:00:33;;;;;;;7.55;5.42;;;;;;;10.71;53.40;99325.20;1780390;79;21162;-68
2021/01/08 10:03:07;;;;;;;7.40;5.60;;;;;;;10.72;53.35;99320.70;1815705;77;21187;-70
2021/01/08 10:05:36;;;;;;;7.17;5.58;;;;;;;10.72;53.28;99316.72;1802878;79;21185;-69
2021/01/08 10:08:05;;;;;;;6.90;5.60;;;;;;;10.72;53.24;99317.56;1784368;79;21197;-68
2021/01/08 10:10:38;;;;;;;6.97;5.15;;;;;;;10.72;53.20;99316.23;1784640;79;21624;-68
2021/01/08 10:13:18;;;;;;;7.10;5.10;;;;;;;10.73;53.12;99318.38;1813007;79;21100;-68
2021/01/08 10:15:54;;;;;;;7.17;5.45;;;;;;;10.76;53.13;99310.88;1847517;77;28154;-67
2021/01/08 10:18:25;;;;;;;6.80;5.33;;;;;;;10.73;53.07;99312.56;1823233;78;21147;-67
2021/01/08 10:21:05;;;;;;;8.95;6.15;;;;;;;10.73;53.01;99308.57;1815119;77;21175;-68
2021/01/08 10:23:43;;;;;;;7.08;5.37;;;;;;;10.74;52.97;99323.52;1827336;78;21119;-67
2021/01/08 10:26:16;;;;;;;5.60;5.00;;;;;;;10.74;52.92;99319.53;1822149;78;21111;-68
2021/01/08 10:28:55;;;;;;;6.72;5.12;;;;;;;10.73;52.89;99315.72;1821056;78;21136;-68
2021/01/08 10:31:23;;;;;;;7.10;5.78;;;;;;;10.74;52.83;99326.66;1801082;78;21101;-69
2021/01/08 10:33:51;;;;;;;6.10;4.97;;;;;;;10.73;52.86;99326.35;1815311;78;21423;-71
2021/01/08 10:36:18;;;;;;;7.65;5.42;;;;;;;10.73;52.82;99331.66;1819684;78;21448;-72
2021/01/08 10:38:45;;;;;;;5.92;5.30;;;;;;;10.74;52.83;99331.97;1803433;78;21148;-71
2021/01/08 10:41:17;;;;;;;6.97;5.22;;;;;;;10.74;52.82;99338.13;1797523;78;22129;-70
2021/01/08 10:43:45;;;;;;;6.90;5.28;;;;;;;10.75;52.79;99337.63;1799620;78;21108;-71
2021/01/08 10:46:14;;;;;;;6.30;5.08;;;;;;;10.75;52.78;99335.78;1801001;78;21575;-71
2021/01/08 10:48:42;;;;;;;6.70;5.47;;;;;;;10.76;52.77;99335.30;1795792;78;21539;-69
2021/01/08 10:51:10;;;;;;;6.75;5.62;;;;;;;10.75;52.75;99334.45;1800056;78;21160;-69
2021/01/08 10:53:38;;;;;;;7.47;5.53;;;;;;;10.75;52.73;99329.14;1815762;78;21150;-69
2021/01/08 10:56:05;;;;;;;7.72;5.42;;;;;;;10.75;52.74;99327.81;1810735;78;21206;-69
2021/01/08 10:58:33;;;;;;;7.05;5.30;;;;;;;10.76;52.73;99333.47;1813972;78;21887;-70
2021/01/08 11:01:02;;;;;;;8.38;5.72;;;;;;;10.77;52.72;99335.61;1834701;77;21139;-71
2021/01/08 11:03:29;;;;;;;5.72;4.90;;;;;;;10.77;52.68;99332.45;1840173;77;21146;-70
2021/01/08 11:05:57;;;;;;;6.12;4.70;;;;;;;10.78;52.68;99338.61;1795397;77;21151;-69
2021/01/08 11:08:24;;;;;;;7.58;6.33;;;;;;;10.78;52.65;99335.95;1820739;78;21171;-68
2021/01/08 11:12:07;;;;;;;6.75;5.67;;;;;;;10.82;52.62;99332.74;1829976;76;28671;-68
2021/01/08 11:14:36;;;;;;;7.60;5.55;;;;;;;10.78;52.65;99335.95;1797867;78;21130;-68
2021/01/08 11:17:04;;;;;;;7.58;5.58;;;;;;;10.77;52.63;99337.76;1786742;78;21202;-68
2021/01/08 11:19:31;;;;;;;6.53;5.20;;;;;;;10.78;52.61;99331.45;1781210;77;21235;-66
2021/01/08 11:21:59;;;;;;;6.65;4.90;;;;;;;10.78;52.60;99335.95;1782816;78;21174;-67
2021/01/08 11:24:26;;;;;;;6.62;5.20;;;;;;;10.78;52.57;99340.75;1746611;80;21238;-67
2021/01/08 11:26:54;;;;;;;5.42;4.47;;;;;;;10.79;52.55;99342.39;1739395;80;21195;-67
2021/01/08 11:29:21;;;;;;;6.28;5.05;;;;;;;10.79;52.54;99347.70;1746815;80;21799;-68
2021/01/08 11:31:48;;;;;;;6.30;5.15;;;;;;;10.79;52.52;99344.23;1752573;80;21623;-69
2021/01/08 11:34:15;;;;;;;5.97;4.85;;;;;;;10.79;52.52;99338.41;1743940;80;21176;-68
2021/01/08 11:36:45;;;;;;;6.35;5.08;;;;;;;10.81;52.51;99342.22;1749438;79;21154;-69
2021/01/08 11:39:13;;;;;;;7.60;5.22;;;;;;;10.80;52.48;99343.23;1739265;80;21189;-69
2021/01/08 11:41:41;;;;;;;5.50;4.78;;;;;;;10.81;52.49;99348.34;1747142;80;22273;-69
2021/01/08 11:44:08;;;;;;;6.22;4.80;;;;;;;10.80;52.44;99341.40;1758426;80;21987;-68
2021/01/08 11:46:35;;;;;;;6.40;5.17;;;;;;;10.80;52.41;99344.05;1750913;80;21654;-67
2021/01/08 11:49:03;;;;;;;7.15;5.25;;;;;;;10.79;52.41;99347.70;1752041;80;21154;-67